sensor_id;sensor_type;location;lat;lon;timestamp;pressure;altitude;pressure_sealevel;temperature;humidity
73422;BME280;61637;47.760;-122.022;2022-10-16T00:00:00;101591.7;;;21.7;unknown
73422;BME280;61637;47.760;-122.022;2022-10-16T00:02:00;101591.7;;;21.6;unknown
73422;BME280;61637;47.760;-122.022;2022-10-16T00:04:01;101591.7;;;21.6;unknown
73422;BME280;61637;47.760;-122.022;2022-10-16T00:06:00;101591.7;;;21.5;unknown
73422;BME280;61637;47.760;-122.022;2022-10-16T00:08:00;101591.7;;;21.4;unknown
73422;BME280;61637;47.760;-122.022;2022-10-16T00:10:00;101591.7;;;21.4;unknown
73422;BME280;61637;47.760;-122.022;2022-10-16T00:12:00;101591.7;;;21.4;unknown
73422;BME280;61637;47.760;-122.022;2022-10-16T00:14:01;101591.7;;;21.3;unknown
73422;BME280;61637;47.760;-122.022;2022-10-16T00:16:01;101591.7;;;21.2;unknown
73422;BME280;61637;47.760;-122.022;2022-10-16T00:18:00;101591.7;;;21.1;unknown
73422;BME280;61637;47.760;-122.022;2022-10-16T00:20:00;101591.7;;;21.1;unknown
73422;BME280;61637;47.760;-122.022;2022-10-16T00:22:00;101591.7;;;21.0;unknown
73422;BME280;61637;47.760;-122.022;2022-10-16T00:24:01;101591.7;;;20.9;unknown
73422;BME280;61637;47.760;-122.022;2022-10-16T00:26:01;101591.7;;;20.8;unknown
73422;BME280;61637;47.760;-122.022;2022-10-16T00:28:00;101591.7;;;20.8;unknown
73422;BME280;61637;47.760;-122.022;2022-10-16T00:30:00;101253.06099999999;;;20.7;unknown
73422;BME280;61637;47.760;-122.022;2022-10-16T00:32:00;101253.06099999999;;;20.6;unknown
73422;BME280;61637;47.760;-122.022;2022-10-16T00:34:00;101253.06099999999;;;20.5;unknown
73422;BME280;61637;47.760;-122.022;2022-10-16T00:36:01;101253.06099999999;;;20.4;unknown
73422;BME280;61637;47.760;-122.022;2022-10-16T00:38:00;101253.06099999999;;;20.3;unknown
73422;BME280;61637;47.760;-122.022;2022-10-16T00:40:00;101253.06099999999;;;20.2;unknown
73422;BME280;61637;47.760;-122.022;2022-10-16T00:42:00;101591.7;;;20.2;unknown
73422;BME280;61637;47.760;-122.022;2022-10-16T00:44:01;101253.06099999999;;;20.0;unknown
73422;BME280;61637;47.760;-122.022;2022-10-16T00:46:01;101591.7;;;19.9;unknown
73422;BME280;61637;47.760;-122.022;2022-10-16T00:48:00;101591.7;;;19.8;unknown
73422;BME280;61637;47.760;-122.022;2022-10-16T00:50:02;101591.7;;;19.8;unknown
73422;BME280;61637;47.760;-122.022;2022-10-16T00:52:00;101591.7;;;19.7;unknown
73422;BME280;61637;47.760;-122.022;2022-10-16T00:54:00;101591.7;;;19.6;unknown
73422;BME280;61637;47.760;-122.022;2022-10-16T00:56:01;101591.7;;;19.6;unknown
73422;BME280;61637;47.760;-122.022;2022-10-16T00:58:00;101591.7;;;19.4;unknown
73422;BME280;61637;47.760;-122.022;2022-10-16T01:00:01;101253.06099999999;;;19.3;unknown
73422;BME280;61637;47.760;-122.022;2022-10-16T01:02:01;101253.06099999999;;;19.2;unknown
73422;BME280;61637;47.760;-122.022;2022-10-16T01:04:00;101253.06099999999;;;19.1;unknown
73422;BME280;61637;47.760;-122.022;2022-10-16T01:06:06;101253.06099999999;;;19.0;unknown
73422;BME280;61637;47.760;-122.022;2022-10-16T01:08:02;101253.06099999999;;;18.9;unknown
73422;BME280;61637;47.760;-122.022;2022-10-16T01:10:03;101591.7;;;18.8;unknown
73422;BME280;61637;47.760;-122.022;2022-10-16T01:12:04;101253.06099999999;;;18.8;unknown
73422;BME280;61637;47.760;-122.022;2022-10-16T01:14:02;101591.7;;;18.7;unknown
73422;BME280;61637;47.760;-122.022;2022-10-16T01:16:01;101253.06099999999;;;18.6;unknown
73422;BME280;61637;47.760;-122.022;2022-10-16T01:18:01;101591.7;;;18.5;unknown
73422;BME280;61637;47.760;-122.022;2022-10-16T01:20:02;101591.7;;;18.4;unknown
73422;BME280;61637;47.760;-122.022;2022-10-16T01:22:00;101253.06099999999;;;18.3;unknown
73422;BME280;61637;47.760;-122.022;2022-10-16T01:24:03;101591.7;;;18.2;unknown
73422;BME280;61637;47.760;-122.022;2022-10-16T01:26:07;101591.7;;;18.2;unknown
73422;BME280;61637;47.760;-122.022;2022-10-16T01:28:00;101591.7;;;18.1;unknown
73422;BME280;61637;47.760;-122.022;2022-10-16T01:30:02;101591.7;;;18.0;unknown
73422;BME280;61637;47.760;-122.022;2022-10-16T01:32:02;101591.7;;;17.9;unknown
73422;BME280;61637;47.760;-122.022;2022-10-16T01:34:02;101591.7;;;17.9;unknown
73422;BME280;61637;47.760;-122.022;2022-10-16T01:36:02;101591.7;;;17.8;unknown
73422;BME280;61637;47.760;-122.022;2022-10-16T01:38:01;101591.7;;;17.7;unknown
73422;BME280;61637;47.760;-122.022;2022-10-16T01:40:00;101591.7;;;17.6;unknown
73422;BME280;61637;47.760;-122.022;2022-10-16T01:42:01;101591.7;;;17.6;unknown
73422;BME280;61637;47.760;-122.022;2022-10-16T01:44:01;101591.7;;;17.5;unknown
73422;BME280;61637;47.760;-122.022;2022-10-16T01:46:00;101591.7;;;17.4;unknown
73422;BME280;61637;47.760;-122.022;2022-10-16T01:48:01;101591.7;;;17.3;unknown
73422;BME280;61637;47.760;-122.022;2022-10-16T01:50:00;101591.7;;;17.3;unknown
73422;BME280;61637;47.760;-122.022;2022-10-16T01:52:02;101591.7;;;17.2;unknown
73422;BME280;61637;47.760;-122.022;2022-10-16T01:54:00;101591.7;;;17.2;unknown
73422;BME280;61637;47.760;-122.022;2022-10-16T01:56:00;101591.7;;;17.1;unknown
73422;BME280;61637;47.760;-122.022;2022-10-16T01:58:00;101591.7;;;17.1;unknown
73422;BME280;61637;47.760;-122.022;2022-10-16T02:00:01;101591.7;;;16.9;unknown
73422;BME280;61637;47.760;-122.022;2022-10-16T02:02:01;101591.7;;;16.9;unknown
73422;BME280;61637;47.760;-122.022;2022-10-16T02:04:01;101591.7;;;16.8;unknown
73422;BME280;61637;47.760;-122.022;2022-10-16T02:06:00;101591.7;;;16.8;unknown
73422;BME280;61637;47.760;-122.022;2022-10-16T02:08:00;101591.7;;;16.8;unknown
73422;BME280;61637;47.760;-122.022;2022-10-16T02:10:00;101591.7;;;16.8;unknown
73422;BME280;61637;47.760;-122.022;2022-10-16T02:12:01;101591.7;;;16.8;unknown
73422;BME280;61637;47.760;-122.022;2022-10-16T02:14:01;101591.7;;;16.7;unknown
73422;BME280;61637;47.760;-122.022;2022-10-16T02:16:00;101591.7;;;16.7;unknown
73422;BME280;61637;47.760;-122.022;2022-10-16T02:18:01;101591.7;;;16.7;unknown
73422;BME280;61637;47.760;-122.022;2022-10-16T02:20:00;101591.7;;;16.7;unknown
73422;BME280;61637;47.760;-122.022;2022-10-16T02:22:01;101591.7;;;16.7;unknown
73422;BME280;61637;47.760;-122.022;2022-10-16T02:24:02;101591.7;;;16.7;unknown
73422;BME280;61637;47.760;-122.022;2022-10-16T02:26:00;101591.7;;;16.7;unknown
73422;BME280;61637;47.760;-122.022;2022-10-16T02:28:01;101591.7;;;16.7;unknown
73422;BME280;61637;47.760;-122.022;2022-10-16T02:30:03;101591.7;;;16.6;unknown
73422;BME280;61637;47.760;-122.022;2022-10-16T02:32:01;101591.7;;;16.6;unknown
73422;BME280;61637;47.760;-122.022;2022-10-16T02:34:00;101591.7;;;16.6;unknown
73422;BME280;61637;47.760;-122.022;2022-10-16T02:36:00;101591.7;;;16.6;unknown
73422;BME280;61637;47.760;-122.022;2022-10-16T02:38:00;101591.7;;;16.6;unknown
73422;BME280;61637;47.760;-122.022;2022-10-16T02:40:00;101591.7;;;16.6;unknown
73422;BME280;61637;47.760;-122.022;2022-10-16T02:42:00;101591.7;;;16.6;unknown
73422;BME280;61637;47.760;-122.022;2022-10-16T02:44:00;101591.7;;;16.6;unknown
73422;BME280;61637;47.760;-122.022;2022-10-16T02:46:00;101591.7;;;16.6;unknown
73422;BME280;61637;47.760;-122.022;2022-10-16T02:48:00;101591.7;;;16.5;unknown
73422;BME280;61637;47.760;-122.022;2022-10-16T02:50:00;101591.7;;;16.5;unknown
73422;BME280;61637;47.760;-122.022;2022-10-16T02:52:00;101591.7;;;16.4;unknown
73422;BME280;61637;47.760;-122.022;2022-10-16T02:54:01;101591.7;;;16.3;unknown
73422;BME280;61637;47.760;-122.022;2022-10-16T02:56:00;101591.7;;;16.3;unknown
73422;BME280;61637;47.760;-122.022;2022-10-16T02:58:00;101591.7;;;16.3;unknown
73422;BME280;61637;47.760;-122.022;2022-10-16T03:00:00;101591.7;;;16.3;unknown
73422;BME280;61637;47.760;-122.022;2022-10-16T03:02:00;101591.7;;;16.3;unknown
73422;BME280;61637;47.760;-122.022;2022-10-16T03:04:00;101591.7;;;16.3;unknown
73422;BME280;61637;47.760;-122.022;2022-10-16T03:06:00;101591.7;;;16.2;unknown
73422;BME280;61637;47.760;-122.022;2022-10-16T03:08:00;101591.7;;;16.2;unknown
73422;BME280;61637;47.760;-122.022;2022-10-16T03:10:00;101591.7;;;16.1;unknown
73422;BME280;61637;47.760;-122.022;2022-10-16T03:12:00;101591.7;;;16.1;unknown
73422;BME280;61637;47.760;-122.022;2022-10-16T03:14:00;101591.7;;;16.0;unknown
73422;BME280;61637;47.760;-122.022;2022-10-16T03:16:00;101591.7;;;16.0;unknown
73422;BME280;61637;47.760;-122.022;2022-10-16T03:18:00;101591.7;;;15.9;unknown
73422;BME280;61637;47.760;-122.022;2022-10-16T03:20:00;101591.7;;;15.9;unknown
73422;BME280;61637;47.760;-122.022;2022-10-16T03:22:00;101591.7;;;15.9;unknown
73422;BME280;61637;47.760;-122.022;2022-10-16T03:24:00;101591.7;;;15.9;unknown
73422;BME280;61637;47.760;-122.022;2022-10-16T03:26:00;101591.7;;;15.8;unknown
73422;BME280;61637;47.760;-122.022;2022-10-16T03:28:00;101591.7;;;15.8;unknown
73422;BME280;61637;47.760;-122.022;2022-10-16T03:30:00;101591.7;;;15.8;unknown
73422;BME280;61637;47.760;-122.022;2022-10-16T03:32:00;101591.7;;;15.8;unknown
73422;BME280;61637;47.760;-122.022;2022-10-16T03:34:00;101591.7;;;15.8;unknown
73422;BME280;61637;47.760;-122.022;2022-10-16T03:36:00;101591.7;;;15.8;unknown
73422;BME280;61637;47.760;-122.022;2022-10-16T03:38:00;101591.7;;;15.7;unknown
73422;BME280;61637;47.760;-122.022;2022-10-16T03:40:00;101591.7;;;15.7;unknown
73422;BME280;61637;47.760;-122.022;2022-10-16T03:42:00;101591.7;;;15.6;unknown
73422;BME280;61637;47.760;-122.022;2022-10-16T03:44:00;101591.7;;;15.6;unknown
73422;BME280;61637;47.760;-122.022;2022-10-16T03:46:00;101591.7;;;15.6;unknown
73422;BME280;61637;47.760;-122.022;2022-10-16T03:48:00;101591.7;;;15.6;unknown
73422;BME280;61637;47.760;-122.022;2022-10-16T03:50:00;101591.7;;;15.5;unknown
73422;BME280;61637;47.760;-122.022;2022-10-16T03:52:00;101591.7;;;15.5;unknown
73422;BME280;61637;47.760;-122.022;2022-10-16T03:54:00;101591.7;;;15.5;unknown
73422;BME280;61637;47.760;-122.022;2022-10-16T03:56:00;101591.7;;;15.4;unknown
73422;BME280;61637;47.760;-122.022;2022-10-16T03:58:00;101591.7;;;15.4;unknown
73422;BME280;61637;47.760;-122.022;2022-10-16T04:00:00;101591.7;;;15.4;unknown
73422;BME280;61637;47.760;-122.022;2022-10-16T04:02:00;101591.7;;;15.4;unknown
73422;BME280;61637;47.760;-122.022;2022-10-16T04:04:00;101591.7;;;15.4;unknown
73422;BME280;61637;47.760;-122.022;2022-10-16T04:06:00;101591.7;;;15.5;unknown
73422;BME280;61637;47.760;-122.022;2022-10-16T04:08:00;101591.7;;;15.6;unknown
73422;BME280;61637;47.760;-122.022;2022-10-16T04:10:00;101591.7;;;15.6;unknown
73422;BME280;61637;47.760;-122.022;2022-10-16T04:12:00;101591.7;;;15.6;unknown
73422;BME280;61637;47.760;-122.022;2022-10-16T04:14:00;101591.7;;;15.6;unknown
73422;BME280;61637;47.760;-122.022;2022-10-16T04:16:00;101591.7;;;15.6;unknown
73422;BME280;61637;47.760;-122.022;2022-10-16T04:18:00;101591.7;;;15.6;unknown
73422;BME280;61637;47.760;-122.022;2022-10-16T04:20:00;101591.7;;;15.6;unknown
73422;BME280;61637;47.760;-122.022;2022-10-16T04:22:00;101591.7;;;15.6;unknown
73422;BME280;61637;47.760;-122.022;2022-10-16T04:24:00;101591.7;;;15.6;unknown
73422;BME280;61637;47.760;-122.022;2022-10-16T04:26:00;101591.7;;;15.7;unknown
73422;BME280;61637;47.760;-122.022;2022-10-16T04:28:00;101591.7;;;15.7;unknown
73422;BME280;61637;47.760;-122.022;2022-10-16T04:30:00;101591.7;;;15.8;unknown
73422;BME280;61637;47.760;-122.022;2022-10-16T04:32:00;101591.7;;;15.9;unknown
73422;BME280;61637;47.760;-122.022;2022-10-16T04:34:00;101591.7;;;15.9;unknown
73422;BME280;61637;47.760;-122.022;2022-10-16T04:36:01;101591.7;;;16.1;unknown
73422;BME280;61637;47.760;-122.022;2022-10-16T04:38:00;101591.7;;;16.1;unknown
73422;BME280;61637;47.760;-122.022;2022-10-16T04:40:00;101591.7;;;16.2;unknown
73422;BME280;61637;47.760;-122.022;2022-10-16T04:42:00;101591.7;;;16.2;unknown
73422;BME280;61637;47.760;-122.022;2022-10-16T04:44:00;101591.7;;;16.3;unknown
73422;BME280;61637;47.760;-122.022;2022-10-16T04:46:00;101591.7;;;16.4;unknown
73422;BME280;61637;47.760;-122.022;2022-10-16T04:48:00;101591.7;;;16.4;unknown
73422;BME280;61637;47.760;-122.022;2022-10-16T04:50:00;101591.7;;;16.4;unknown
73422;BME280;61637;47.760;-122.022;2022-10-16T04:52:00;101591.7;;;16.4;unknown
73422;BME280;61637;47.760;-122.022;2022-10-16T04:54:00;101591.7;;;16.4;unknown
73422;BME280;61637;47.760;-122.022;2022-10-16T04:56:00;101591.7;;;16.3;unknown
73422;BME280;61637;47.760;-122.022;2022-10-16T04:58:00;101591.7;;;16.3;unknown
73422;BME280;61637;47.760;-122.022;2022-10-16T05:00:00;101591.7;;;16.4;unknown
73422;BME280;61637;47.760;-122.022;2022-10-16T05:02:00;101591.7;;;16.4;unknown
73422;BME280;61637;47.760;-122.022;2022-10-16T05:04:00;101591.7;;;16.5;unknown
73422;BME280;61637;47.760;-122.022;2022-10-16T05:06:00;101591.7;;;16.6;unknown
73422;BME280;61637;47.760;-122.022;2022-10-16T05:08:00;101591.7;;;16.7;unknown
73422;BME280;61637;47.760;-122.022;2022-10-16T05:10:00;101591.7;;;16.8;unknown
73422;BME280;61637;47.760;-122.022;2022-10-16T05:12:00;101591.7;;;16.8;unavailable
73422;BME280;61637;47.760;-122.022;2022-10-16T05:14:00;101591.7;;;16.8;unavailable
73422;BME280;61637;47.760;-122.022;2022-10-16T05:16:00;101591.7;;;16.9;unknown
73422;BME280;61637;47.760;-122.022;2022-10-16T05:18:00;101591.7;;;16.9;unknown
73422;BME280;61637;47.760;-122.022;2022-10-16T05:20:00;101591.7;;;16.8;unknown
73422;BME280;61637;47.760;-122.022;2022-10-16T05:22:00;101591.7;;;16.8;unknown
73422;BME280;61637;47.760;-122.022;2022-10-16T05:24:00;101591.7;;;16.7;unknown
73422;BME280;61637;47.760;-122.022;2022-10-16T05:26:00;101591.7;;;16.6;unknown
73422;BME280;61637;47.760;-122.022;2022-10-16T05:28:00;101591.7;;;16.5;unknown
73422;BME280;61637;47.760;-122.022;2022-10-16T05:30:00;101591.7;;;16.3;unknown
73422;BME280;61637;47.760;-122.022;2022-10-16T05:32:00;101591.7;;;16.3;unknown
73422;BME280;61637;47.760;-122.022;2022-10-16T05:34:00;101591.7;;;16.3;unknown
73422;BME280;61637;47.760;-122.022;2022-10-16T05:36:01;101591.7;;;16.5;unknown
73422;BME280;61637;47.760;-122.022;2022-10-16T05:38:00;101591.7;;;16.6;unknown
73422;BME280;61637;47.760;-122.022;2022-10-16T05:40:00;101591.7;;;16.7;unknown
73422;BME280;61637;47.760;-122.022;2022-10-16T05:42:00;101591.7;;;16.7;unknown
73422;BME280;61637;47.760;-122.022;2022-10-16T05:44:00;101591.7;;;16.8;unknown
73422;BME280;61637;47.760;-122.022;2022-10-16T05:46:01;101591.7;;;16.8;unknown
73422;BME280;61637;47.760;-122.022;2022-10-16T05:48:00;101591.7;;;16.9;unknown
73422;BME280;61637;47.760;-122.022;2022-10-16T05:50:00;101591.7;;;16.9;unknown
73422;BME280;61637;47.760;-122.022;2022-10-16T05:52:00;101591.7;;;17.0;unknown
73422;BME280;61637;47.760;-122.022;2022-10-16T05:54:00;101591.7;;;17.1;unknown
73422;BME280;61637;47.760;-122.022;2022-10-16T05:56:00;101591.7;;;17.0;unknown
73422;BME280;61637;47.760;-122.022;2022-10-16T05:58:00;101591.7;;;17.0;unknown
73422;BME280;61637;47.760;-122.022;2022-10-16T06:00:00;101591.7;;;17.1;unknown
73422;BME280;61637;47.760;-122.022;2022-10-16T06:02:00;101591.7;;;17.1;unknown
73422;BME280;61637;47.760;-122.022;2022-10-16T06:04:00;101591.7;;;17.3;unknown
73422;BME280;61637;47.760;-122.022;2022-10-16T06:06:07;101591.7;;;17.4;unknown
73422;BME280;61637;47.760;-122.022;2022-10-16T06:08:00;101591.7;;;17.7;unknown
73422;BME280;61637;47.760;-122.022;2022-10-16T06:10:00;101591.7;;;17.8;unknown
73422;BME280;61637;47.760;-122.022;2022-10-16T06:12:00;101591.7;;;17.9;unknown
73422;BME280;61637;47.760;-122.022;2022-10-16T06:14:01;101591.7;;;18.0;unknown
73422;BME280;61637;47.760;-122.022;2022-10-16T06:16:00;101591.7;;;18.1;unknown
73422;BME280;61637;47.760;-122.022;2022-10-16T06:18:00;101591.7;;;18.2;unknown
73422;BME280;61637;47.760;-122.022;2022-10-16T06:20:00;101591.7;;;18.3;unknown
73422;BME280;61637;47.760;-122.022;2022-10-16T06:22:00;101591.7;;;18.3;unknown
73422;BME280;61637;47.760;-122.022;2022-10-16T06:24:00;101591.7;;;18.4;unknown
73422;BME280;61637;47.760;-122.022;2022-10-16T06:26:04;101591.7;;;18.4;unknown
73422;BME280;61637;47.760;-122.022;2022-10-16T06:28:00;101591.7;;;18.5;unknown
73422;BME280;61637;47.760;-122.022;2022-10-16T06:30:00;101591.7;;;18.5;unknown
73422;BME280;61637;47.760;-122.022;2022-10-16T06:32:00;101591.7;;;18.6;unknown
73422;BME280;61637;47.760;-122.022;2022-10-16T06:34:00;101591.7;;;18.6;unknown
73422;BME280;61637;47.760;-122.022;2022-10-16T06:36:01;101591.7;;;18.5;unknown
73422;BME280;61637;47.760;-122.022;2022-10-16T06:38:00;101591.7;;;18.4;unknown
73422;BME280;61637;47.760;-122.022;2022-10-16T06:40:00;101591.7;;;18.4;unknown
73422;BME280;61637;47.760;-122.022;2022-10-16T06:42:00;101591.7;;;18.3;unknown
73422;BME280;61637;47.760;-122.022;2022-10-16T06:44:00;101591.7;;;18.1;unknown
73422;BME280;61637;47.760;-122.022;2022-10-16T06:46:00;101591.7;;;17.9;unknown
73422;BME280;61637;47.760;-122.022;2022-10-16T06:48:00;101591.7;;;17.8;unknown
73422;BME280;61637;47.760;-122.022;2022-10-16T06:50:00;101591.7;;;17.7;unknown
73422;BME280;61637;47.760;-122.022;2022-10-16T06:52:00;101591.7;;;17.5;unknown
73422;BME280;61637;47.760;-122.022;2022-10-16T06:54:00;101591.7;;;17.3;unknown
73422;BME280;61637;47.760;-122.022;2022-10-16T06:56:06;101591.7;;;17.1;unknown
73422;BME280;61637;47.760;-122.022;2022-10-16T06:58:00;101591.7;;;17.1;unknown
73422;BME280;61637;47.760;-122.022;2022-10-16T07:00:00;101591.7;;;16.9;unknown
73422;BME280;61637;47.760;-122.022;2022-10-16T07:02:00;101591.7;;;16.9;unknown
73422;BME280;61637;47.760;-122.022;2022-10-16T07:04:00;101591.7;;;16.9;unknown
73422;BME280;61637;47.760;-122.022;2022-10-16T07:06:01;101591.7;;;16.8;unknown
73422;BME280;61637;47.760;-122.022;2022-10-16T07:08:00;101591.7;;;16.8;unknown
73422;BME280;61637;47.760;-122.022;2022-10-16T07:10:00;101591.7;;;16.7;unknown
73422;BME280;61637;47.760;-122.022;2022-10-16T07:12:00;101591.7;;;16.7;unknown
73422;BME280;61637;47.760;-122.022;2022-10-16T07:14:00;101591.7;;;16.7;unknown
73422;BME280;61637;47.760;-122.022;2022-10-16T07:16:04;101591.7;;;16.6;unknown
73422;BME280;61637;47.760;-122.022;2022-10-16T07:18:00;101591.7;;;16.6;unknown
73422;BME280;61637;47.760;-122.022;2022-10-16T07:20:00;101591.7;;;16.6;unknown
73422;BME280;61637;47.760;-122.022;2022-10-16T07:22:00;101591.7;;;16.4;unknown
73422;BME280;61637;47.760;-122.022;2022-10-16T07:24:00;101591.7;;;16.3;unknown
73422;BME280;61637;47.760;-122.022;2022-10-16T07:26:00;101591.7;;;16.3;unknown
73422;BME280;61637;47.760;-122.022;2022-10-16T07:28:00;101591.7;;;16.3;unknown
73422;BME280;61637;47.760;-122.022;2022-10-16T07:30:00;101591.7;;;16.2;unknown
73422;BME280;61637;47.760;-122.022;2022-10-16T07:32:01;101591.7;;;16.2;unknown
73422;BME280;61637;47.760;-122.022;2022-10-16T07:34:00;101591.7;;;16.1;unknown
73422;BME280;61637;47.760;-122.022;2022-10-16T07:36:00;101591.7;;;16.1;unknown
73422;BME280;61637;47.760;-122.022;2022-10-16T07:38:00;101591.7;;;16.1;unknown
73422;BME280;61637;47.760;-122.022;2022-10-16T07:40:00;101591.7;;;16.1;unknown
73422;BME280;61637;47.760;-122.022;2022-10-16T07:42:00;101591.7;;;16.1;unknown
73422;BME280;61637;47.760;-122.022;2022-10-16T07:44:00;101591.7;;;16.1;unknown
73422;BME280;61637;47.760;-122.022;2022-10-16T07:46:00;101591.7;;;16.1;unknown
73422;BME280;61637;47.760;-122.022;2022-10-16T07:48:00;101591.7;;;16.1;unknown
73422;BME280;61637;47.760;-122.022;2022-10-16T07:50:00;101591.7;;;16.2;unknown
73422;BME280;61637;47.760;-122.022;2022-10-16T07:52:00;101591.7;;;16.2;unknown
73422;BME280;61637;47.760;-122.022;2022-10-16T07:54:00;101591.7;;;16.2;unknown
73422;BME280;61637;47.760;-122.022;2022-10-16T07:56:01;101591.7;;;16.3;unknown
73422;BME280;61637;47.760;-122.022;2022-10-16T07:58:00;101591.7;;;16.2;unknown
73422;BME280;61637;47.760;-122.022;2022-10-16T08:00:00;101591.7;;;16.2;unknown
73422;BME280;61637;47.760;-122.022;2022-10-16T08:02:00;101591.7;;;16.2;unknown
73422;BME280;61637;47.760;-122.022;2022-10-16T08:04:00;101591.7;;;16.2;unknown
73422;BME280;61637;47.760;-122.022;2022-10-16T08:06:01;101591.7;;;16.2;unknown
73422;BME280;61637;47.760;-122.022;2022-10-16T08:08:00;101591.7;;;16.3;unknown
73422;BME280;61637;47.760;-122.022;2022-10-16T08:10:00;101591.7;;;16.2;unknown
73422;BME280;61637;47.760;-122.022;2022-10-16T08:12:00;101591.7;;;16.3;unknown
73422;BME280;61637;47.760;-122.022;2022-10-16T08:14:00;101591.7;;;16.2;unknown
73422;BME280;61637;47.760;-122.022;2022-10-16T08:16:00;101591.7;;;16.2;unknown
73422;BME280;61637;47.760;-122.022;2022-10-16T08:18:01;101591.7;;;16.1;unknown
73422;BME280;61637;47.760;-122.022;2022-10-16T08:20:00;101591.7;;;15.9;unknown
73422;BME280;61637;47.760;-122.022;2022-10-16T08:22:00;101591.7;;;15.8;unknown
73422;BME280;61637;47.760;-122.022;2022-10-16T08:24:00;101591.7;;;15.7;unknown
73422;BME280;61637;47.760;-122.022;2022-10-16T08:26:02;101591.7;;;15.7;unknown
73422;BME280;61637;47.760;-122.022;2022-10-16T08:28:00;101591.7;;;15.6;unknown
73422;BME280;61637;47.760;-122.022;2022-10-16T08:30:00;101591.7;;;15.5;unknown
73422;BME280;61637;47.760;-122.022;2022-10-16T08:32:00;101591.7;;;15.4;unknown
73422;BME280;61637;47.760;-122.022;2022-10-16T08:34:00;101591.7;;;15.4;unknown
73422;BME280;61637;47.760;-122.022;2022-10-16T08:36:00;101591.7;;;15.4;unknown
73422;BME280;61637;47.760;-122.022;2022-10-16T08:38:02;101591.7;;;15.5;unknown
73422;BME280;61637;47.760;-122.022;2022-10-16T08:40:00;101591.7;;;15.5;unknown
73422;BME280;61637;47.760;-122.022;2022-10-16T08:42:05;101591.7;;;15.5;unknown
73422;BME280;61637;47.760;-122.022;2022-10-16T08:44:05;101591.7;;;15.6;unknown
73422;BME280;61637;47.760;-122.022;2022-10-16T08:46:05;101591.7;;;15.6;unknown
73422;BME280;61637;47.760;-122.022;2022-10-16T08:48:04;101591.7;;;15.6;unknown
73422;BME280;61637;47.760;-122.022;2022-10-16T08:50:02;101591.7;;;15.7;unknown
73422;BME280;61637;47.760;-122.022;2022-10-16T08:52:00;101591.7;;;15.8;unknown
73422;BME280;61637;47.760;-122.022;2022-10-16T08:54:01;101591.7;;;15.9;unknown
73422;BME280;61637;47.760;-122.022;2022-10-16T08:56:00;101591.7;;;16.1;unknown
73422;BME280;61637;47.760;-122.022;2022-10-16T08:58:00;101591.7;;;16.2;unknown
73422;BME280;61637;47.760;-122.022;2022-10-16T09:00:05;101591.7;;;16.3;unknown
73422;BME280;61637;47.760;-122.022;2022-10-16T09:02:00;101591.7;;;16.4;unknown
73422;BME280;61637;47.760;-122.022;2022-10-16T09:04:21;101591.7;;;16.6;unknown
73422;BME280;61637;47.760;-122.022;2022-10-16T09:06:07;101591.7;;;16.6;unknown
73422;BME280;61637;47.760;-122.022;2022-10-16T09:08:03;101591.7;;;16.6;unknown
73422;BME280;61637;47.760;-122.022;2022-10-16T09:10:03;101591.7;;;16.6;unknown
73422;BME280;61637;47.760;-122.022;2022-10-16T09:12:02;101591.7;;;16.6;unknown
73422;BME280;61637;47.760;-122.022;2022-10-16T09:14:01;101591.7;;;16.6;unknown
73422;BME280;61637;47.760;-122.022;2022-10-16T09:16:03;101591.7;;;16.6;unknown
73422;BME280;61637;47.760;-122.022;2022-10-16T09:18:02;101591.7;;;16.6;unknown
73422;BME280;61637;47.760;-122.022;2022-10-16T09:20:05;101591.7;;;16.6;unknown
73422;BME280;61637;47.760;-122.022;2022-10-16T09:22:01;101591.7;;;16.6;unknown
73422;BME280;61637;47.760;-122.022;2022-10-16T09:24:04;101591.7;;;16.6;unknown
73422;BME280;61637;47.760;-122.022;2022-10-16T09:26:00;101591.7;;;16.5;unknown
73422;BME280;61637;47.760;-122.022;2022-10-16T09:28:00;101591.7;;;16.4;unknown
73422;BME280;61637;47.760;-122.022;2022-10-16T09:30:00;101591.7;;;16.4;unknown
73422;BME280;61637;47.760;-122.022;2022-10-16T09:32:06;101591.7;;;16.3;unknown
73422;BME280;61637;47.760;-122.022;2022-10-16T09:34:00;101591.7;;;16.2;unknown
73422;BME280;61637;47.760;-122.022;2022-10-16T09:36:00;101591.7;;;16.2;unknown
73422;BME280;61637;47.760;-122.022;2022-10-16T09:38:00;101591.7;;;16.1;unknown
73422;BME280;61637;47.760;-122.022;2022-10-16T09:40:00;101591.7;;;16.1;unknown
73422;BME280;61637;47.760;-122.022;2022-10-16T09:42:00;101591.7;;;16.1;unknown
73422;BME280;61637;47.760;-122.022;2022-10-16T09:44:00;101591.7;;;16.1;unknown
73422;BME280;61637;47.760;-122.022;2022-10-16T09:46:01;101591.7;;;16.1;unknown
73422;BME280;61637;47.760;-122.022;2022-10-16T09:48:01;101591.7;;;16.1;unknown
73422;BME280;61637;47.760;-122.022;2022-10-16T09:50:02;101591.7;;;16.0;unknown
73422;BME280;61637;47.760;-122.022;2022-10-16T09:52:04;101591.7;;;15.9;unknown
73422;BME280;61637;47.760;-122.022;2022-10-16T09:54:01;101591.7;;;15.8;unknown
73422;BME280;61637;47.760;-122.022;2022-10-16T09:56:00;101591.7;;;15.8;unknown
73422;BME280;61637;47.760;-122.022;2022-10-16T09:58:00;101591.7;;;15.9;unknown